Time;durP1;ratioP1;P1;durP2;ratioP2;P2;SDS_P1;SDS_P2;PMS_P1;PMS_P2;Temp;Humidity;BMP_temperature;BMP_pressure;BME280_temperature;BME280_humidity;BME280_pressure;Samples;Min_cycle;Max_cycle;Signal;HPM_P1;HPM_P2
2024/01/02 00:01:42;;;;;;;7.63;5.57;;;9.10;75.20;;;;;;5116391;28;20052;-80
2024/01/02 00:04:08;;;;;;;7.88;6.10;;;9.10;75.20;;;;;;5132969;27;20015;-81
2024/01/02 00:06:34;;;;;;;7.13;5.85;;;9.10;75.20;;;;;;5128412;27;20472;-81
2024/01/02 00:08:59;;;;;;;7.95;5.88;;;9.00;75.20;;;;;;5097332;27;20561;-79
2024/01/02 00:11:25;;;;;;;8.35;6.38;;;9.00;75.10;;;;;;5119591;27;20419;-80
2024/01/02 00:13:51;;;;;;;8.57;6.63;;;9.00;75.10;;;;;;5110558;28;20476;-80
2024/01/02 00:16:19;;;;;;;9.25;6.13;;;9.00;75.20;;;;;;5124765;27;20032;-79
2024/01/02 00:18:45;;;;;;;8.45;6.20;;;9.00;75.20;;;;;;5096132;28;20130;-80
2024/01/02 00:21:11;;;;;;;8.30;6.15;;;9.00;75.20;;;;;;5111146;28;20127;-80
2024/01/02 00:23:37;;;;;;;8.07;5.93;;;9.00;75.20;;;;;;5118196;28;20104;-80
2024/01/02 00:26:03;;;;;;;8.00;6.00;;;9.00;75.20;;;;;;5107562;28;20031;-79
2024/01/02 00:28:28;;;;;;;7.80;5.70;;;9.00;75.10;;;;;;5101320;28;20059;-78
2024/01/02 00:30:54;;;;;;;7.88;5.78;;;9.00;75.10;;;;;;5128758;27;20443;-80
2024/01/02 00:33:20;;;;;;;8.55;6.20;;;9.00;75.10;;;;;;5117008;28;20212;-80
2024/01/02 00:35:46;;;;;;;8.23;5.80;;;8.90;75.10;;;;;;5119049;28;20027;-80
2024/01/02 00:38:11;;;;;;;7.85;6.03;;;9.00;75.10;;;;;;5110954;28;20031;-82
2024/01/02 00:40:37;;;;;;;7.00;5.43;;;9.00;75.10;;;;;;5117789;28;20035;-80
2024/01/02 00:43:03;;;;;;;7.80;6.20;;;9.00;75.10;;;;;;5096089;28;20046;-81
2024/01/02 00:45:29;;;;;;;7.10;5.55;;;9.00;75.10;;;;;;5114031;28;20024;-81
2024/01/02 00:47:55;;;;;;;6.97;5.70;;;9.00;75.20;;;;;;5096254;28;20111;-81
2024/01/02 00:50:21;;;;;;;8.35;6.10;;;9.00;75.60;;;;;;5095784;28;20027;-80
2024/01/02 00:52:48;;;;;;;7.75;5.55;;;9.00;75.00;;;;;;5108401;28;20031;-82
2024/01/02 00:55:13;;;;;;;7.93;5.97;;;9.00;74.90;;;;;;5108929;28;20023;-81
2024/01/02 00:57:39;;;;;;;7.90;5.70;;;9.00;75.30;;;;;;5098192;28;20047;-80
2024/01/02 01:00:06;;;;;;;7.38;5.53;;;9.00;75.00;;;;;;5110316;28;20039;-80
2024/01/02 01:02:32;;;;;;;7.07;5.65;;;9.00;75.00;;;;;;5113556;28;20508;-80
2024/01/02 01:04:58;;;;;;;7.55;5.85;;;9.00;74.90;;;;;;5132780;28;20027;-79
2024/01/02 01:07:24;;;;;;;8.38;5.63;;;9.00;74.90;;;;;;5132752;28;20479;-79
2024/01/02 01:09:49;;;;;;;8.05;6.10;;;9.00;74.80;;;;;;5103288;27;20059;-79
2024/01/02 01:12:15;;;;;;;7.68;6.22;;;8.90;74.70;;;;;;5102510;28;20480;-80
2024/01/02 01:14:41;;;;;;;8.43;6.05;;;9.00;74.80;;;;;;5114760;28;20492;-80
2024/01/02 01:17:07;;;;;;;9.18;6.45;;;8.90;74.70;;;;;;5100932;28;20532;-79
2024/01/02 01:19:33;;;;;;;7.07;5.72;;;8.90;74.80;;;;;;5110471;28;20054;-80
2024/01/02 01:21:59;;;;;;;7.35;5.55;;;8.90;74.80;;;;;;5102831;28;20085;-80
2024/01/02 01:24:25;;;;;;;7.40;5.55;;;8.90;74.80;;;;;;5105761;28;20396;-79
2024/01/02 01:26:52;;;;;;;6.97;5.57;;;8.80;74.80;;;;;;5130768;27;20115;-81
2024/01/02 01:29:24;;;;;;;8.77;5.82;;;8.90;74.90;;;;;;5100044;28;20055;-80
2024/01/02 01:31:50;;;;;;;7.60;5.63;;;8.80;74.80;;;;;;5110215;28;20042;-79
2024/01/02 01:34:16;;;;;;;7.18;5.70;;;8.80;74.80;;;;;;5113379;28;20028;-78
2024/01/02 01:36:42;;;;;;;9.05;6.28;;;8.80;74.80;;;;;;5120710;27;20027;-79
2024/01/02 01:39:08;;;;;;;8.23;5.50;;;8.80;74.80;;;;;;5108802;28;20035;-79
2024/01/02 01:41:33;;;;;;;8.23;5.97;;;8.80;74.70;;;;;;5127265;27;20465;-82
2024/01/02 01:43:59;;;;;;;7.97;5.90;;;8.80;74.70;;;;;;5119577;27;20020;-79
2024/01/02 01:46:36;;;;;;;7.22;5.45;;;8.70;74.70;;;;;;5107466;27;20029;-78
2024/01/02 01:49:02;;;;;;;7.97;5.75;;;8.70;74.70;;;;;;5101240;27;20431;-79
2024/01/02 01:51:28;;;;;;;9.10;6.13;;;8.70;74.70;;;;;;5115166;27;20038;-80
2024/01/02 01:53:56;;;;;;;6.68;5.18;;;8.70;74.70;;;;;;5116322;27;20023;-80
2024/01/02 01:56:22;;;;;;;8.73;6.28;;;8.60;74.60;;;;;;5118167;27;20031;-81
2024/01/02 01:58:48;;;;;;;7.72;5.65;;;8.60;74.60;;;;;;5117071;27;20051;-80
2024/01/02 02:01:14;;;;;;;7.47;6.05;;;8.60;74.60;;;;;;5127094;27;20462;-80
2024/01/02 02:03:40;;;;;;;7.82;5.82;;;8.60;74.60;;;;;;5114669;27;20027;-80
2024/01/02 02:06:06;;;;;;;7.78;5.68;;;8.60;74.50;;;;;;5127142;27;20037;-79
2024/01/02 02:08:32;;;;;;;7.13;5.22;;;8.60;74.50;;;;;;5111753;27;20035;-79
2024/01/02 02:10:58;;;;;;;6.97;5.28;;;8.50;74.40;;;;;;5115189;27;20678;-79
2024/01/02 02:13:24;;;;;;;6.90;5.15;;;8.50;74.40;;;;;;5125355;27;20481;-79
2024/01/02 02:15:50;;;;;;;7.00;5.20;;;8.50;74.40;;;;;;5118590;27;20023;-79
2024/01/02 02:18:16;;;;;;;5.80;4.70;;;8.50;74.20;;;;;;5119706;27;20027;-80
2024/01/02 02:20:41;;;;;;;5.45;4.25;;;8.40;74.10;;;;;;5108387;27;20030;-78
2024/01/02 02:23:07;;;;;;;5.07;3.90;;;8.50;74.00;;;;;;5116600;27;20366;-78
2024/01/02 02:25:33;;;;;;;5.13;3.90;;;8.50;74.50;;;;;;5098760;27;20457;-80
2024/01/02 02:27:59;;;;;;;4.53;3.67;;;8.40;73.70;;;;;;5119634;27;20030;-79
2024/01/02 02:30:25;;;;;;;4.63;3.50;;;8.50;73.60;;;;;;5124032;27;20127;-81
2024/01/02 02:32:51;;;;;;;4.30;3.30;;;8.40;73.20;;;;;;5116612;28;20070;-79
2024/01/02 02:35:17;;;;;;;4.00;3.20;;;8.40;73.10;;;;;;5129028;27;20465;-80
2024/01/02 02:37:42;;;;;;;4.15;3.38;;;8.40;73.00;;;;;;5116360;28;20469;-79
2024/01/02 02:40:09;;;;;;;3.30;2.90;;;8.40;73.00;;;;;;5117653;27;20031;-80
2024/01/02 02:42:34;;;;;;;3.30;2.92;;;8.40;72.90;;;;;;5113574;27;20064;-80
2024/01/02 02:45:01;;;;;;;3.55;2.95;;;8.40;72.80;;;;;;5124987;27;20050;-79
2024/01/02 02:47:27;;;;;;;3.65;3.00;;;8.40;72.70;;;;;;5135743;27;20399;-79
2024/01/02 02:49:52;;;;;;;3.30;3.00;;;8.40;72.70;;;;;;5136476;27;20030;-79
2024/01/02 02:52:21;;;;;;;3.72;2.90;;;8.40;72.50;;;;;;5113232;27;20023;-79
2024/01/02 02:54:47;;;;;;;2.72;2.53;;;8.40;72.50;;;;;;5110512;28;20397;-80
2024/01/02 02:57:13;;;;;;;3.45;2.65;;;8.40;72.50;;;;;;5117066;27;20028;-80
2024/01/02 02:59:39;;;;;;;2.80;2.45;;;8.40;72.40;;;;;;5115790;28;20051;-80
2024/01/02 03:02:05;;;;;;;2.53;2.33;;;8.40;72.30;;;;;;5111897;27;20366;-80
2024/01/02 03:04:30;;;;;;;2.97;2.50;;;8.40;72.10;;;;;;5133842;27;20384;-80
2024/01/02 03:06:56;;;;;;;2.38;2.17;;;8.40;72.10;;;;;;5134056;27;20034;-80
2024/01/02 03:09:22;;;;;;;2.45;2.25;;;8.40;72.00;;;;;;5102284;28;20048;-79
2024/01/02 03:11:48;;;;;;;2.15;2.03;;;8.40;71.90;;;;;;5113737;27;20063;-80
2024/01/02 03:14:14;;;;;;;2.53;2.33;;;8.40;71.80;;;;;;5099309;27;20481;-79
2024/01/02 03:16:43;;;;;;;2.60;2.40;;;8.40;71.70;;;;;;5105643;27;20035;-78
2024/01/02 03:19:09;;;;;;;2.25;2.05;;;8.40;71.60;;;;;;5117343;27;20453;-79
2024/01/02 03:21:35;;;;;;;2.10;2.00;;;8.40;71.50;;;;;;5122650;27;20055;-79
2024/01/02 03:24:02;;;;;;;2.53;2.33;;;8.40;71.50;;;;;;5114973;28;20054;-80
2024/01/02 03:26:28;;;;;;;2.00;1.90;;;8.40;71.40;;;;;;5113275;28;20059;-79
2024/01/02 03:28:54;;;;;;;2.55;2.30;;;8.40;71.30;;;;;;5112238;27;20106;-80
2024/01/02 03:31:20;;;;;;;2.30;2.10;;;8.40;71.30;;;;;;5114329;28;20127;-79
2024/01/02 03:33:49;;;;;;;2.00;1.90;;;8.40;71.20;;;;;;5116161;27;20028;-79
2024/01/02 03:36:22;;;;;;;2.00;1.90;;;8.40;71.10;;;;;;5109235;27;20058;-79
2024/01/02 03:38:49;;;;;;;2.22;2.03;;;8.40;71.10;;;;;;5103670;27;20039;-81
2024/01/02 03:41:15;;;;;;;2.30;2.10;;;8.50;71.10;;;;;;5135685;27;20027;-80
2024/01/02 03:43:41;;;;;;;2.00;1.90;;;8.50;71.10;;;;;;5120991;27;20051;-80
2024/01/02 03:46:07;;;;;;;1.90;1.80;;;8.50;71.00;;;;;;5108918;27;20030;-79
2024/01/02 03:48:33;;;;;;;1.83;1.73;;;8.50;70.90;;;;;;5096379;28;20027;-79
2024/01/02 03:51:02;;;;;;;2.00;1.90;;;8.50;70.90;;;;;;5096407;28;20035;-80
2024/01/02 03:53:28;;;;;;;1.80;1.70;;;8.50;70.80;;;;;;5107956;27;20030;-79
2024/01/02 03:55:57;;;;;;;1.90;1.80;;;8.50;70.80;;;;;;5118402;27;20320;-80
2024/01/02 03:58:23;;;;;;;2.05;1.95;;;8.50;70.70;;;;;;5101218;28;20023;-80
2024/01/02 04:00:54;;;;;;;1.90;1.80;;;8.50;70.70;;;;;;5113957;27;20038;-80
2024/01/02 04:03:20;;;;;;;2.00;1.90;;;8.50;70.70;;;;;;5117524;27;20027;-79
2024/01/02 04:05:46;;;;;;;1.95;1.85;;;8.50;70.60;;;;;;5100695;27;20023;-80
2024/01/02 04:08:12;;;;;;;1.80;1.70;;;8.50;70.50;;;;;;5114682;28;20481;-81
2024/01/02 04:10:39;;;;;;;1.90;1.80;;;8.50;70.50;;;;;;5109343;27;20541;-82
2024/01/02 04:13:05;;;;;;;1.90;1.80;;;8.50;70.50;;;;;;5111415;28;20027;-79
2024/01/02 04:15:31;;;;;;;1.80;1.70;;;8.50;70.40;;;;;;5120527;28;20030;-80
2024/01/02 04:17:57;;;;;;;1.70;1.60;;;8.60;70.50;;;;;;5109603;27;20023;-79
2024/01/02 04:20:23;;;;;;;1.65;1.55;;;8.50;70.40;;;;;;5116587;28;20023;-80
2024/01/02 04:22:54;;;;;;;1.80;1.70;;;8.50;70.30;;;;;;5106228;28;20035;-80
2024/01/02 04:25:21;;;;;;;1.70;1.60;;;8.50;70.30;;;;;;5108998;28;20038;-81
2024/01/02 04:27:46;;;;;;;1.70;1.60;;;8.50;70.20;;;;;;5101462;27;20543;-81
2024/01/02 04:30:13;;;;;;;1.73;1.63;;;8.50;70.20;;;;;;5115210;28;20118;-80
2024/01/02 04:32:38;;;;;;;1.67;1.58;;;8.50;70.20;;;;;;5106677;28;20046;-81
2024/01/02 04:35:05;;;;;;;1.70;1.60;;;8.50;70.20;;;;;;5099887;28;20028;-80
2024/01/02 04:37:30;;;;;;;1.70;1.60;;;8.50;70.20;;;;;;5113929;28;20031;-80
2024/01/02 04:39:56;;;;;;;1.80;1.70;;;8.50;70.20;;;;;;5105417;28;20027;-81
2024/01/02 04:42:22;;;;;;;1.70;1.60;;;8.50;70.20;;;;;;5121160;28;20035;-79
2024/01/02 04:44:48;;;;;;;1.45;1.45;;;8.50;70.20;;;;;;5116671;28;20023;-81
2024/01/02 04:47:14;;;;;;;1.80;1.70;;;8.50;70.20;;;;;;5122959;28;20460;-80
2024/01/02 04:49:39;;;;;;;1.52;1.48;;;8.50;70.20;;;;;;5115018;28;20480;-81
2024/01/02 04:52:05;;;;;;;2.00;1.80;;;8.50;70.20;;;;;;5115380;28;20027;-80
2024/01/02 04:54:31;;;;;;;1.67;1.58;;;8.50;70.20;;;;;;5130502;28;20027;-79
2024/01/02 04:56:57;;;;;;;1.75;1.65;;;8.50;70.10;;;;;;5114162;28;20105;-79
2024/01/02 04:59:23;;;;;;;1.60;1.55;;;8.50;70.10;;;;;;5105846;28;20027;-80
2024/01/02 05:01:50;;;;;;;1.60;1.50;;;8.40;70.10;;;;;;5119209;28;20503;-79
2024/01/02 05:04:15;;;;;;;1.60;1.60;;;8.40;70.10;;;;;;5121795;28;20089;-80
2024/01/02 05:06:41;;;;;;;1.50;1.50;;;8.40;70.10;;;;;;5129302;27;20418;-79
2024/01/02 05:09:08;;;;;;;1.65;1.55;;;8.50;70.20;;;;;;5107157;28;20035;-82
2024/01/02 05:11:37;;;;;;;1.75;1.65;;;8.40;70.10;;;;;;5119823;27;20114;-79
2024/01/02 05:14:03;;;;;;;1.60;1.50;;;8.40;70.10;;;;;;5113245;28;20107;-81
2024/01/02 05:16:30;;;;;;;1.83;1.70;;;8.50;70.20;;;;;;5101865;27;20114;-80
2024/01/02 05:18:55;;;;;;;1.80;1.70;;;8.40;70.10;;;;;;5110110;28;20028;-78
2024/01/02 05:21:21;;;;;;;2.33;2.13;;;8.50;70.20;;;;;;5099598;28;20488;-79
2024/01/02 05:23:47;;;;;;;2.40;2.20;;;8.50;71.10;;;;;;5098933;28;20027;-80
2024/01/02 05:26:13;;;;;;;2.45;2.25;;;8.50;71.90;;;;;;5118425;27;20484;-83
2024/01/02 05:28:39;;;;;;;2.10;1.95;;;8.60;71.70;;;;;;5133876;27;20089;-81
2024/01/02 05:31:05;;;;;;;2.10;2.00;;;8.60;71.50;;;;;;5116545;27;20024;-83
2024/01/02 05:33:31;;;;;;;2.67;1.95;;;8.70;71.30;;;;;;5100496;28;20476;-82
2024/01/02 05:35:56;;;;;;;2.28;1.98;;;8.60;71.10;;;;;;5120063;27;20031;-80
2024/01/02 05:38:23;;;;;;;1.88;1.77;;;8.70;71.00;;;;;;5118967;27;20027;-84
2024/01/02 05:40:48;;;;;;;2.20;2.00;;;8.60;70.90;;;;;;5118123;27;20385;-77
2024/01/02 05:43:14;;;;;;;2.25;2.15;;;8.60;71.60;;;;;;5140116;27;20027;-81
2024/01/02 05:45:40;;;;;;;2.22;2.03;;;8.70;71.60;;;;;;5124114;27;20032;-83
2024/01/02 05:48:07;;;;;;;2.35;2.15;;;8.70;71.40;;;;;;5090939;28;20076;-77
2024/01/02 05:50:32;;;;;;;2.38;2.17;;;8.70;71.20;;;;;;5100597;28;20051;-86
2024/01/02 05:52:58;;;;;;;2.28;2.10;;;8.70;71.70;;;;;;5110171;27;20038;-85
2024/01/02 05:55:24;;;;;;;2.00;1.90;;;8.70;72.20;;;;;;5117994;27;20362;-80
2024/01/02 05:57:50;;;;;;;2.20;2.00;;;8.80;72.10;;;;;;5112911;27;20054;-79
2024/01/02 06:00:16;;;;;;;1.92;1.83;;;8.80;72.00;;;;;;5105334;28;20038;-79
2024/01/02 06:02:42;;;;;;;1.80;1.70;;;8.80;71.80;;;;;;5123394;27;20043;-80
2024/01/02 06:05:08;;;;;;;2.33;2.10;;;8.80;71.60;;;;;;5117460;27;20056;-82
2024/01/02 06:07:34;;;;;;;2.13;1.80;;;8.80;71.40;;;;;;5120114;27;20023;-82
2024/01/02 06:10:00;;;;;;;1.80;1.70;;;8.80;71.40;;;;;;5091630;27;20039;-77
2024/01/02 06:12:26;;;;;;;1.80;1.70;;;8.80;71.40;;;;;;5136584;27;20019;-79
2024/01/02 06:14:51;;;;;;;1.90;1.80;;;8.70;71.30;;;;;;5112903;27;20034;-78
2024/01/02 06:17:17;;;;;;;1.83;1.73;;;8.70;71.20;;;;;;5114735;27;20031;-81
2024/01/02 06:19:43;;;;;;;1.80;1.70;;;8.70;71.20;;;;;;5116975;27;20028;-82
2024/01/02 06:22:09;;;;;;;1.75;1.65;;;8.70;71.20;;;;;;5097769;28;20032;-82
2024/01/02 06:24:35;;;;;;;2.00;1.90;;;8.70;71.20;;;;;;5119446;27;20484;-82
2024/01/02 06:27:01;;;;;;;1.95;1.75;;;8.70;71.20;;;;;;5109294;27;20495;-78
2024/01/02 06:29:26;;;;;;;1.73;1.63;;;8.70;71.10;;;;;;5115193;27;20031;-80
2024/01/02 06:31:52;;;;;;;1.98;1.88;;;8.70;71.10;;;;;;5105953;28;20031;-81
2024/01/02 06:34:18;;;;;;;1.75;1.65;;;8.70;71.10;;;;;;5116979;28;20015;-80
2024/01/02 06:36:43;;;;;;;2.00;1.90;;;8.70;71.10;;;;;;5096468;28;20024;-79
2024/01/02 06:39:09;;;;;;;1.88;1.77;;;8.70;71.10;;;;;;5114339;28;20035;-81
2024/01/02 06:41:35;;;;;;;1.98;1.88;;;8.70;71.60;;;;;;5095972;28;20164;-81
2024/01/02 06:44:01;;;;;;;2.00;1.90;;;8.70;71.10;;;;;;5113816;28;20020;-78
2024/01/02 06:46:26;;;;;;;1.90;1.80;;;8.70;71.00;;;;;;5095553;28;20529;-76
2024/01/02 06:48:52;;;;;;;2.13;1.80;;;8.70;70.90;;;;;;5095125;28;20156;-78
2024/01/02 06:51:18;;;;;;;2.22;1.95;;;8.70;70.90;;;;;;5114300;27;20031;-84
2024/01/02 06:53:44;;;;;;;1.80;1.70;;;8.70;70.90;;;;;;5114652;27;20035;-83
2024/01/02 06:56:09;;;;;;;3.83;1.90;;;8.60;70.80;;;;;;5114395;28;20414;-83
2024/01/02 06:58:36;;;;;;;1.95;1.85;;;8.70;70.90;;;;;;5114139;28;20084;-82
2024/01/02 07:01:02;;;;;;;2.03;1.73;;;8.70;70.90;;;;;;5114549;27;20393;-78
2024/01/02 07:03:28;;;;;;;2.67;2.08;;;8.70;70.90;;;;;;5113428;28;20384;-77
2024/01/02 07:05:54;;;;;;;2.05;1.90;;;8.60;70.80;;;;;;5115937;27;20024;-76
2024/01/02 07:08:20;;;;;;;1.90;1.80;;;8.60;70.80;;;;;;5095274;28;20423;-78
2024/01/02 07:10:45;;;;;;;2.10;2.00;;;8.70;70.80;;;;;;5094985;28;20046;-77
2024/01/02 07:13:11;;;;;;;2.20;1.95;;;8.70;70.80;;;;;;5112302;28;20462;-77
2024/01/02 07:15:37;;;;;;;1.90;1.80;;;8.60;70.70;;;;;;5097183;28;20036;-76
2024/01/02 07:18:03;;;;;;;2.28;2.08;;;8.70;70.70;;;;;;5113582;28;20107;-77
2024/01/02 07:20:29;;;;;;;2.10;1.95;;;8.70;70.70;;;;;;5112528;28;20542;-81
2024/01/02 07:22:54;;;;;;;160.52;110.03;;;8.70;70.70;;;;;;5095474;28;20035;-78
2024/01/02 07:25:21;;;;;;;108.35;74.40;;;8.70;71.10;;;;;;5098128;27;20039;-77
2024/01/02 07:27:46;;;;;;;71.55;48.97;;;8.80;71.10;;;;;;5113350;28;20055;-77
2024/01/02 07:30:12;;;;;;;52.63;39.13;;;8.80;71.00;;;;;;5094780;28;20054;-79
2024/01/02 07:32:38;;;;;;;32.40;23.45;;;8.80;70.90;;;;;;5112959;28;20431;-77
2024/01/02 07:35:05;;;;;;;17.17;13.32;;;8.80;70.80;;;;;;5114600;27;20033;-76
2024/01/02 07:37:32;;;;;;;8.10;5.40;;;8.90;70.70;;;;;;5112910;28;20024;-78
2024/01/02 07:39:58;;;;;;;4.80;3.78;;;8.90;70.60;;;;;;5097336;27;20054;-77
2024/01/02 07:42:23;;;;;;;2.90;2.60;;;8.90;70.50;;;;;;5095202;28;20496;-77
2024/01/02 07:44:49;;;;;;;2.28;2.08;;;8.90;70.40;;;;;;5112964;28;20054;-77
2024/01/02 07:47:16;;;;;;;2.05;1.90;;;8.90;70.20;;;;;;5113104;27;20482;-78
2024/01/02 07:49:43;;;;;;;2.00;1.90;;;8.90;70.10;;;;;;5096441;27;20433;-78
2024/01/02 07:52:09;;;;;;;1.70;1.60;;;9.00;70.00;;;;;;5115910;27;20051;-79
2024/01/02 07:54:38;;;;;;;1.55;1.48;;;9.00;69.70;;;;;;5098340;27;20070;-78
2024/01/02 07:57:05;;;;;;;1.60;1.50;;;9.00;69.50;;;;;;5113424;28;20027;-80
2024/01/02 07:59:31;;;;;;;1.75;1.65;;;9.00;69.30;;;;;;5113086;28;20066;-77
2024/01/02 08:01:56;;;;;;;1.70;1.60;;;9.00;69.10;;;;;;5113442;28;20067;-81
2024/01/02 08:04:24;;;;;;;1.80;1.70;;;9.00;69.00;;;;;;5098961;28;20028;-76
2024/01/02 08:06:50;;;;;;;1.70;1.60;;;9.00;68.90;;;;;;5098111;28;20638;-80
2024/01/02 08:09:16;;;;;;;1.70;1.60;;;9.00;68.70;;;;;;5124216;27;20059;-78
2024/01/02 08:11:41;;;;;;;1.70;1.60;;;9.00;68.50;;;;;;5112990;27;20055;-79
2024/01/02 08:14:07;;;;;;;1.80;1.70;;;9.00;68.50;;;;;;5114175;27;20027;-78
2024/01/02 08:16:33;;;;;;;1.85;1.75;;;9.00;68.40;;;;;;5114821;28;20035;-80
2024/01/02 08:19:00;;;;;;;9.32;5.50;;;9.00;68.40;;;;;;5114302;28;20087;-80
2024/01/02 08:21:26;;;;;;;24.63;16.70;;;9.10;72.10;;;;;;5126797;27;20023;-80
2024/01/02 08:23:52;;;;;;;22.25;14.48;;;9.40;72.60;;;;;;5114675;28;20481;-80
2024/01/02 08:26:18;;;;;;;8.93;6.18;;;9.60;71.20;;;;;;5089661;28;20090;-79
2024/01/02 08:28:44;;;;;;;5.43;3.13;;;9.70;70.30;;;;;;5094028;28;20102;-80
2024/01/02 08:31:10;;;;;;;2.20;2.00;;;9.70;69.50;;;;;;5093804;28;20032;-80
2024/01/02 08:33:36;;;;;;;1.75;1.65;;;9.60;68.90;;;;;;5092651;28;20081;-79
2024/01/02 08:36:02;;;;;;;1.60;1.50;;;9.50;68.70;;;;;;5094098;28;20028;-80
2024/01/02 08:38:28;;;;;;;1.70;1.60;;;9.50;68.50;;;;;;5116591;28;20094;-80
2024/01/02 08:40:54;;;;;;;1.67;1.58;;;9.40;68.40;;;;;;5134825;27;20103;-79
2024/01/02 08:43:20;;;;;;;1.60;1.50;;;9.30;68.40;;;;;;5116389;28;20031;-79
2024/01/02 08:45:46;;;;;;;1.60;1.50;;;9.30;68.20;;;;;;5135619;27;20076;-80
2024/01/02 08:48:12;;;;;;;1.40;1.40;;;9.30;68.00;;;;;;5130721;27;20023;-79
2024/01/02 08:50:42;;;;;;;1.70;1.60;;;9.20;68.00;;;;;;5099942;28;20423;-78
2024/01/02 08:53:09;;;;;;;1.63;1.52;;;9.20;68.00;;;;;;5100531;28;20031;-80
2024/01/02 08:55:35;;;;;;;1.30;1.30;;;9.20;67.80;;;;;;5099606;28;20076;-78
2024/01/02 08:58:03;;;;;;;1.80;1.70;;;9.20;67.70;;;;;;5099532;28;20485;-77
2024/01/02 09:00:29;;;;;;;1.60;1.50;;;9.10;67.60;;;;;;5101932;28;20053;-78
2024/01/02 09:02:54;;;;;;;1.73;1.60;;;9.10;67.50;;;;;;5098149;28;20466;-77
2024/01/02 09:05:20;;;;;;;1.70;1.60;;;9.00;67.40;;;;;;5116284;28;20051;-76
2024/01/02 09:07:46;;;;;;;1.70;1.60;;;9.00;67.40;;;;;;5098150;28;20024;-78
2024/01/02 09:10:13;;;;;;;1.70;1.60;;;9.00;67.30;;;;;;5116067;28;20031;-80
2024/01/02 09:12:39;;;;;;;1.60;1.50;;;9.00;67.40;;;;;;5116243;28;20085;-80
2024/01/02 09:15:06;;;;;;;46.70;29.73;;;9.00;67.30;;;;;;5098113;28;20032;-75
2024/01/02 09:17:32;;;;;;;24.42;16.63;;;9.00;70.20;;;;;;5116765;27;20094;-80
2024/01/02 09:19:58;;;;;;;10.23;7.68;;;9.20;70.10;;;;;;5117360;27;20027;-79
2024/01/02 09:22:24;;;;;;;3.70;2.67;;;9.40;69.40;;;;;;5107363;28;20024;-76
2024/01/02 09:24:51;;;;;;;2.10;1.92;;;9.50;68.30;;;;;;5118604;27;20028;-77
2024/01/02 09:27:19;;;;;;;1.90;1.80;;;9.50;67.70;;;;;;5102433;28;20032;-79
2024/01/02 09:29:45;;;;;;;1.70;1.60;;;9.40;67.30;;;;;;5098614;28;20047;-82
2024/01/02 09:32:11;;;;;;;1.70;1.60;;;9.40;67.10;;;;;;5101265;27;20788;-77
2024/01/02 09:34:40;;;;;;;2.63;1.67;;;9.30;66.90;;;;;;5099178;28;20465;-77
2024/01/02 09:37:06;;;;;;;1.65;1.55;;;9.30;66.80;;;;;;5097855;28;20023;-79
2024/01/02 09:39:32;;;;;;;1.30;1.30;;;9.30;66.70;;;;;;5117408;27;20030;-79
2024/01/02 09:42:27;;;;;;;1.70;1.60;;;9.20;66.20;;;;;;5097308;28;20017;-78
2024/01/02 09:45:02;;;;;;;1.73;1.63;;;9.20;66.00;;;;;;5098540;28;20028;-80
2024/01/02 09:47:54;;;;;;;1.33;1.33;;;9.10;65.90;;;;;;5097086;28;20032;-81
2024/01/02 09:50:59;;;;;;;1.70;1.60;;;9.00;65.90;;;;;;5102328;27;20051;-84
2024/01/02 09:53:50;;;;;;;1.80;1.70;;;9.00;65.50;;;;;;5038732;28;20067;-82
2024/01/02 09:56:40;;;;;;;1.55;1.50;;;9.00;65.40;;;;;;5121195;28;20024;-77
2024/01/02 09:59:25;;;;;;;1.55;1.55;;;8.90;65.40;;;;;;5099143;28;20042;-80
2024/01/02 10:02:24;;;;;;;1.70;1.60;;;8.90;65.20;;;;;;5114949;28;20093;-84
2024/01/02 10:05:28;;;;;;;1.60;1.50;;;8.90;65.10;;;;;;5096964;28;20070;-81
2024/01/02 10:08:19;;;;;;;1.50;1.50;;;8.80;65.00;;;;;;5098869;28;20110;-84
2024/01/02 10:11:14;;;;;;;1.60;1.50;;;8.80;65.00;;;;;;5099213;28;20020;-81
2024/01/02 10:14:22;;;;;;;1.60;1.60;;;8.80;65.00;;;;;;5100166;28;20031;-82
2024/01/02 10:16:57;;;;;;;1.60;1.50;;;8.80;64.90;;;;;;5058201;28;20027;-81
2024/01/02 10:19:37;;;;;;;1.65;1.55;;;8.80;65.00;;;;;;5115024;28;20077;-80
2024/01/02 10:22:24;;;;;;;1.75;1.65;;;8.70;65.00;;;;;;5115699;28;20023;-82
2024/01/02 10:25:02;;;;;;;1.70;1.60;;;8.80;65.10;;;;;;5097167;28;20031;-79
2024/01/02 10:27:50;;;;;;;1.70;1.60;;;8.80;65.00;;;;;;5096001;28;20031;-82
2024/01/02 10:30:21;;;;;;;225.80;164.55;;;8.80;64.90;;;;;;5100737;28;20034;-82
2024/01/02 10:33:02;;;;;;;140.73;106.07;;;8.90;65.10;;;;;;5101495;28;20040;-83
2024/01/02 10:35:43;;;;;;;77.15;59.65;;;8.90;65.20;;;;;;5119764;27;20051;-82
2024/01/02 10:38:15;;;;;;;42.45;31.75;;;8.90;65.10;;;;;;5120102;27;20068;-87
2024/01/02 10:40:46;;;;;;;23.08;16.38;;;8.90;65.00;;;;;;5137188;27;20033;-84
2024/01/02 10:43:24;;;;;;;7.32;4.72;;;9.00;65.00;;;;;;5137659;27;20034;-83
2024/01/02 10:46:10;;;;;;;2.75;2.20;;;9.00;64.60;;;;;;5136930;27;20054;-85
2024/01/02 10:48:53;;;;;;;1.70;1.60;;;8.90;64.80;;;;;;5118547;27;20065;-83
2024/01/02 10:51:50;;;;;;;1.80;1.70;;;8.90;64.10;;;;;;5119063;27;20035;-83
2024/01/02 10:54:36;;;;;;;1.70;1.60;;;8.80;63.70;;;;;;5113488;28;20114;-83
2024/01/02 10:57:05;;;;;;;1.40;1.40;;;8.80;64.00;;;;;;5099157;27;20527;-85
2024/01/02 10:59:34;;;;;;;1.70;1.60;;;8.70;64.00;;;;;;5119562;27;20085;-84
2024/01/02 11:02:13;;;;;;;1.50;1.50;;;8.70;64.00;;;;;;5116160;28;20110;-83
2024/01/02 11:04:48;;;;;;;1.70;1.60;;;8.70;63.90;;;;;;5108729;28;20488;-86
2024/01/02 11:07:18;;;;;;;1.50;1.50;;;8.70;63.90;;;;;;5117781;27;20055;-83
2024/01/02 11:10:13;;;;;;;1.80;1.70;;;8.70;63.90;;;;;;5118728;27;20113;-83
2024/01/02 11:12:58;;;;;;;1.85;1.73;;;8.70;63.70;;;;;;5117105;27;20106;-84
2024/01/02 11:15:25;;;;;;;1.60;1.50;;;8.70;63.70;;;;;;5135852;27;20090;-83
2024/01/02 11:17:54;;;;;;;1.63;1.52;;;8.70;63.60;;;;;;5118668;27;20027;-83
2024/01/02 11:20:21;;;;;;;1.63;1.52;;;8.70;63.60;;;;;;5136279;27;20100;-85
2024/01/02 11:23:06;;;;;;;1.70;1.60;;;8.70;63.50;;;;;;5124383;27;20024;-84
2024/01/02 11:25:35;;;;;;;;;;;8.70;63.50;;;;;;5122811;27;20023;-84
2024/01/02 11:28:02;;;;;;;1.83;1.73;;;8.70;63.30;;;;;;5136815;27;20425;-84
2024/01/02 11:30:34;;;;;;;1.67;1.58;;;8.80;63.40;;;;;;5136575;27;20100;-84
2024/01/02 11:33:25;;;;;;;1.65;1.60;;;8.70;63.30;;;;;;5127988;27;20465;-84
2024/01/02 11:36:11;;;;;;;1.73;1.63;;;8.80;63.30;;;;;;5117697;27;20031;-85
2024/01/02 11:38:51;;;;;;;1.73;1.63;;;8.80;63.30;;;;;;5095734;28;20077;-85
2024/01/02 11:41:55;;;;;;;1.77;1.67;;;8.80;63.40;;;;;;5097364;27;20457;-83
2024/01/02 11:44:32;;;;;;;1.73;1.63;;;8.80;63.30;;;;;;5135162;27;20098;-83
2024/01/02 11:47:03;;;;;;;1.80;1.70;;;8.80;63.10;;;;;;5094611;28;20031;-86
2024/01/02 11:49:30;;;;;;;1.92;1.83;;;8.80;63.10;;;;;;5130024;27;20119;-81
2024/01/02 11:52:03;;;;;;;1.83;1.73;;;8.90;63.10;;;;;;5096648;28;20084;-83
2024/01/02 11:54:48;;;;;;;1.77;1.67;;;8.90;63.00;;;;;;5118163;27;20490;-84
2024/01/02 11:58:04;;;;;;;1.85;1.75;;;8.90;62.90;;;;;;5096455;28;20031;-80
2024/01/02 12:00:59;;;;;;;1.80;1.70;;;8.80;62.70;;;;;;5112825;27;20056;-83
2024/01/02 12:03:56;;;;;;;1.90;1.80;;;8.80;62.80;;;;;;5115757;28;20051;-83
2024/01/02 12:06:38;;;;;;;1.65;1.55;;;8.80;62.60;;;;;;5095895;28;20023;-84
2024/01/02 12:09:11;;;;;;;1.88;1.77;;;8.70;62.80;;;;;;5097131;28;20042;-84
2024/01/02 12:11:47;;;;;;;1.80;1.70;;;8.70;62.80;;;;;;5112900;28;20035;-78
2024/01/02 12:14:28;;;;;;;1.90;1.80;;;8.70;62.80;;;;;;5094946;28;20027;-78
2024/01/02 12:17:00;;;;;;;1.90;1.80;;;8.70;62.70;;;;;;5095997;28;20026;-77
2024/01/02 12:19:28;;;;;;;1.70;1.60;;;8.70;62.80;;;;;;5097908;28;20035;-80
2024/01/02 12:21:55;;;;;;;1.77;1.67;;;8.70;62.80;;;;;;5095513;28;20020;-84
2024/01/02 12:24:22;;;;;;;1.77;1.67;;;8.70;62.80;;;;;;5096205;28;20569;-84
2024/01/02 12:26:52;;;;;;;1.83;1.73;;;8.70;62.80;;;;;;5098736;28;20030;-86
2024/01/02 12:29:43;;;;;;;1.80;1.70;;;8.70;62.90;;;;;;5093036;28;20023;-82
2024/01/02 12:32:16;;;;;;;1.83;1.73;;;8.70;62.80;;;;;;5114414;28;20027;-83
2024/01/02 12:34:49;;;;;;;320.95;181.90;;;8.70;62.70;;;;;;5114165;28;20468;-79
2024/01/02 12:37:37;;;;;;;130.47;91.87;;;8.60;62.60;;;;;;5100606;28;20066;-84
2024/01/02 12:40:06;;;;;;;82.18;62.28;;;8.50;62.80;;;;;;5114267;28;20019;-85
2024/01/02 12:42:40;;;;;;;59.05;41.60;;;8.50;63.00;;;;;;5114692;28;20020;-84
2024/01/02 12:45:09;;;;;;;31.30;19.80;;;8.40;62.90;;;;;;5113783;28;20035;-81
2024/01/02 12:47:40;;;;;;;19.33;14.00;;;8.40;62.90;;;;;;5095834;28;20427;-79
2024/01/02 12:50:07;;;;;;;9.07;5.82;;;8.40;63.00;;;;;;5112505;28;20462;-77
2024/01/02 12:52:46;;;;;;;5.75;4.43;;;8.40;63.00;;;;;;5108669;28;20024;-79
2024/01/02 12:55:14;;;;;;;3.17;2.88;;;8.30;62.90;;;;;;5112717;28;20046;-80
2024/01/02 12:57:41;;;;;;;2.22;2.08;;;8.30;62.90;;;;;;5096115;28;20035;-81
2024/01/02 13:00:10;;;;;;;2.30;2.10;;;8.30;62.90;;;;;;5095560;28;20031;-79
2024/01/02 13:02:38;;;;;;;1.85;1.75;;;8.20;62.80;;;;;;5113918;28;20063;-80
2024/01/02 13:05:05;;;;;;;2.08;1.98;;;8.20;62.90;;;;;;5114429;28;20020;-80
2024/01/02 13:07:37;;;;;;;2.13;1.92;;;8.10;62.90;;;;;;5134402;27;20015;-78